Celle, Germany

3:33 AM CEST on March 26, 2017 (GMT +0200)
Celle Army | | Change Station

Elev 171 ft 52.60 °N, 10.02 °E | Updated 13 minutes ago

Shallow Fog
Shallow Fog
36 °F
Feels Like 36 °F
N
0
Wind Variable Wind from North

Today
High -- | Low -- °F
--% Chance of Precip.
Yesterday
High -- | Low -- °F
Precip. -- in
Pressure 30.30 in
Visibility 6.2 miles
Clouds Scattered Clouds 34000 ft
Dew Point 34 °F
Humidity 93%
Rainfall 0.00 in
Snow Depth Not available.
7:08 AM 7:43 PM
Waning Crescent, 5% visible
METAR ETHC 260120Z 00000KT 9999 MIFG SCT340 02/01 Q1026 BLU+
Pressure 30.30 in
Visibility 6.2 miles
Clouds Scattered Clouds 34000 ft
Dew Point 34 °F
Humidity 93%
Rainfall 0.00 in
Snow Depth Not available.
7:08 AM 7:43 PM
Waning Crescent, 5% visible
METAR ETHC 260120Z 00000KT 9999 MIFG SCT340 02/01 Q1026 BLU+

Get Severe Weather Alerts

Thanks for signing up!

Be on the lookout for a verification email in your inbox.

You'll start receiving the daily forecast at 8 AM.

×

10-Day Weather Forecast

×

Almanac

Astronomy

Mar. 26, 2017 Rise Set
Actual Time
Civil Twilight
Nautical Twilight
Astronomical Twilight
Moon
Length of Visible Light
Length of Day
Tomorrow will be .
, % of the Moon is Illuminated

Today's Extremes

Country Highs Country Lows

Community

WunderPhotos

Upload Photos

1,962,540 photos uploaded!

WunderBlog® & News

Nearby

Air Quality

  Air Quality AQ Index Pollutant
Not available.

Snow Depth

Station Depth Elevation

Earthquake Activity

City Distance Mag. Time & Date
Minimum magnitude displayed is 2.5.

Earthquake Activity

City Distance Mag. Time & Date
Minimum magnitude displayed is 2.5.

Coastal Water Temperatures

Place Temperature

Stations

Nearby Weather Stations

Station Location Temp. Windchill Dew Point Humidity Wind Precip. Elev Updated Type